Calilegua, Argentina
Current Conditions -  °F | °C
As of 6:00 AM on Tuesday 21 Oct 2014 (Local Time) from SASJ Reporting Station
Clear Clear  
Wind Chill: 15°   Ceiling: Unl
Heat Index: 15°   Visibility: 6mi
Dew Point: 14°   Wind: 6mph
Humidity: 94%   Direction: 320°NW
Pressure: 30.12"   Gusts: NA
Location:  23.78°S, 64.78°W
Report Text: SASJ 210900Z 32005KT 9999 SCT 025 15/14 Q1020
Loading
Personal Weather Stations






























Interactive Weather Map
Tropical Storm Tracking
New forecast layout! Learn more

10-Day Weather Forecast

Advertisements
Track Severe Weather on mobile